Aviation Digital Data Service (ADDS)

Output produced by METARs form (1717 UTC 26 October 2021)
found at http://aviationweather.gov/metar/data/
 
METAR text: KAUN 261655Z AUTO 13008KT 9SM FEW060 BKN075 11/08 A3021 RMK A01
Conditions at: KAUN (AUBURN MUNI , CA, US) observed 1655 UTC 26 October 2021
Temperature: 11.0°C (52°F)
Dewpoint: 8.0°C (46°F) [RH = 82%]
Pressure (altimeter): 30.21 inches Hg (1023.1 mb)
Winds: from the SE (130 degrees) at 9 MPH (8 knots; 4.1 m/s)
Visibility: 9 miles (14 km)
Ceiling: 7500 feet AGL
Clouds: few clouds at 6000 feet AGL
broken clouds at 7500 feet AGL
Weather: automated observation with no human augmentation;
there may or may not be significant weather present at this time